Terminal Aerodrome Forecast
Issued by NWS Spokane, WA

Home | Current Version | Previous Version | Text Only | Print | Product List | Glossary On
Versions: 1 2 3 4 5 6 7 8 9 10 11 12 13 14 15 16 17 18 19 20 21 22
000
FTUS46 KOTX 301139
TAFLWS
TAF
KLWS 301139Z 3012/0112 30005KT P6SM VCSH OVC060
     FM301800 30012G19KT P6SM BKN060
     FM302000 30016G25KT P6SM SCT060
     FM010400 24007KT P6SM FEW060
     FM010800 22003KT P6SM SKC=

USA.gov is the U.S. government's official web portal to all federal, state and local government web resources and services.